sensor_id;sensor_type;location;lat;lon;timestamp;pressure;altitude;pressure_sealevel;temperature
79714;BMP280;69206;51.420;5.400;2023-06-22T00:00:49;101847.66;;;21.81
79714;BMP280;69206;51.420;5.400;2023-06-22T00:03:16;101819.13;;;21.67
79714;BMP280;69206;51.420;5.400;2023-06-22T00:05:42;101840.63;;;21.80
79714;BMP280;69206;51.420;5.400;2023-06-22T00:08:07;101824.75;;;21.51
79714;BMP280;69206;51.420;5.400;2023-06-22T00:10:32;101869.09;;;21.67
79714;BMP280;69206;51.420;5.400;2023-06-22T00:12:58;101865.78;;;21.65
79714;BMP280;69206;51.420;5.400;2023-06-22T00:15:23;101863.03;;;21.58
79714;BMP280;69206;51.420;5.400;2023-06-22T00:17:49;101853.19;;;21.59
79714;BMP280;69206;51.420;5.400;2023-06-22T00:20:15;101866.34;;;21.60
79714;BMP280;69206;51.420;5.400;2023-06-22T00:22:42;101870.03;;;21.59
79714;BMP280;69206;51.420;5.400;2023-06-22T00:25:08;101847.34;;;21.49
79714;BMP280;69206;51.420;5.400;2023-06-22T00:27:35;101868.38;;;21.58
79714;BMP280;69206;51.420;5.400;2023-06-22T00:30:01;101840.69;;;21.45
79714;BMP280;69206;51.420;5.400;2023-06-22T00:32:26;101839.75;;;21.52
79714;BMP280;69206;51.420;5.400;2023-06-22T00:34:52;101840.25;;;21.41
79714;BMP280;69206;51.420;5.400;2023-06-22T00:37:18;101820.47;;;21.36
79714;BMP280;69206;51.420;5.400;2023-06-22T00:39:43;101862.06;;;21.45
79714;BMP280;69206;51.420;5.400;2023-06-22T00:42:10;101842.22;;;21.33
79714;BMP280;69206;51.420;5.400;2023-06-22T00:44:36;101837.59;;;21.27
79714;BMP280;69206;51.420;5.400;2023-06-22T00:47:02;101819.38;;;21.09
79714;BMP280;69206;51.420;5.400;2023-06-22T00:49:28;101839.00;;;21.37
79714;BMP280;69206;51.420;5.400;2023-06-22T00:51:53;101806.28;;;21.14
79714;BMP280;69206;51.420;5.400;2023-06-22T00:54:19;101836.03;;;21.32
79714;BMP280;69206;51.420;5.400;2023-06-22T00:56:58;101812.34;;;21.08
79714;BMP280;69206;51.420;5.400;2023-06-22T00:59:26;101834.59;;;21.15
79714;BMP280;69206;51.420;5.400;2023-06-22T01:01:51;101837.41;;;21.07
79714;BMP280;69206;51.420;5.400;2023-06-22T01:04:17;101845.69;;;21.12
79714;BMP280;69206;51.420;5.400;2023-06-22T01:07:03;101844.94;;;21.18
79714;BMP280;69206;51.420;5.400;2023-06-22T01:09:35;101800.63;;;20.89
79714;BMP280;69206;51.420;5.400;2023-06-22T01:12:06;101799.72;;;20.82
79714;BMP280;69206;51.420;5.400;2023-06-22T01:14:42;101846.22;;;21.22
79714;BMP280;69206;51.420;5.400;2023-06-22T01:17:09;101814.03;;;21.09
79714;BMP280;69206;51.420;5.400;2023-06-22T01:19:49;101841.84;;;21.36
79714;BMP280;69206;51.420;5.400;2023-06-22T01:22:23;101837.22;;;21.44
79714;BMP280;69206;51.420;5.400;2023-06-22T01:24:57;101796.22;;;21.16
79714;BMP280;69206;51.420;5.400;2023-06-22T01:30:07;101839.75;;;21.52
79714;BMP280;69206;51.420;5.400;2023-06-22T01:32:38;101859.13;;;21.40
79714;BMP280;69206;51.420;5.400;2023-06-22T01:35:07;101849.22;;;21.34
79714;BMP280;69206;51.420;5.400;2023-06-22T01:37:34;101815.91;;;21.30
79714;BMP280;69206;51.420;5.400;2023-06-22T01:40:02;101803.72;;;21.06
79714;BMP280;69206;51.420;5.400;2023-06-22T01:42:29;101833.75;;;21.29
79714;BMP280;69206;51.420;5.400;2023-06-22T01:44:55;101815.00;;;21.23
79714;BMP280;69206;51.420;5.400;2023-06-22T01:47:22;101826.25;;;21.18
79714;BMP280;69206;51.420;5.400;2023-06-22T01:49:48;101714.50;;;20.45
79714;BMP280;69206;51.420;5.400;2023-06-22T01:52:14;101827.25;;;21.17
79714;BMP280;69206;51.420;5.400;2023-06-22T01:54:39;101821.88;;;21.11
79714;BMP280;69206;51.420;5.400;2023-06-22T01:57:05;101830.06;;;21.09
79714;BMP280;69206;51.420;5.400;2023-06-22T02:02:22;101841.09;;;21.06
79714;BMP280;69206;51.420;5.400;2023-06-22T02:04:59;101835.59;;;21.29
79714;BMP280;69206;51.420;5.400;2023-06-22T02:07:32;101824.75;;;21.16
79714;BMP280;69206;51.420;5.400;2023-06-22T02:09:59;101785.44;;;20.89
79714;BMP280;69206;51.420;5.400;2023-06-22T02:12:28;101819.97;;;21.11
79714;BMP280;69206;51.420;5.400;2023-06-22T02:14:54;101823.25;;;20.93
79714;BMP280;69206;51.420;5.400;2023-06-22T02:17:20;101785.16;;;20.84
79714;BMP280;69206;51.420;5.400;2023-06-22T02:19:46;101822.63;;;20.91
79714;BMP280;69206;51.420;5.400;2023-06-22T02:22:11;101824.00;;;20.87
79714;BMP280;69206;51.420;5.400;2023-06-22T02:24:38;101822.34;;;20.86
79714;BMP280;69206;51.420;5.400;2023-06-22T02:27:04;101780.75;;;20.77
79714;BMP280;69206;51.420;5.400;2023-06-22T02:29:32;101768.28;;;20.63
79714;BMP280;69206;51.420;5.400;2023-06-22T02:31:57;101813.69;;;20.84
79714;BMP280;69206;51.420;5.400;2023-06-22T02:34:24;101809.38;;;20.83
79714;BMP280;69206;51.420;5.400;2023-06-22T02:36:51;101801.03;;;20.71
79714;BMP280;69206;51.420;5.400;2023-06-22T02:39:20;101793.75;;;20.65
79714;BMP280;69206;51.420;5.400;2023-06-22T02:41:48;101761.09;;;20.49
79714;BMP280;69206;51.420;5.400;2023-06-22T02:44:15;101767.66;;;20.61
79714;BMP280;69206;51.420;5.400;2023-06-22T02:46:41;101788.03;;;20.68
79714;BMP280;69206;51.420;5.400;2023-06-22T02:49:06;101777.19;;;20.70
79714;BMP280;69206;51.420;5.400;2023-06-22T02:51:35;101799.25;;;20.64
79714;BMP280;69206;51.420;5.400;2023-06-22T02:54:02;101802.88;;;20.56
79714;BMP280;69206;51.420;5.400;2023-06-22T02:56:28;101768.09;;;20.21
79714;BMP280;69206;51.420;5.400;2023-06-22T02:58:55;101806.28;;;20.50
79714;BMP280;69206;51.420;5.400;2023-06-22T03:01:26;101789.44;;;20.35
79714;BMP280;69206;51.420;5.400;2023-06-22T03:03:53;101788.56;;;20.64
79714;BMP280;69206;51.420;5.400;2023-06-22T03:06:20;101783.72;;;20.53
79714;BMP280;69206;51.420;5.400;2023-06-22T03:08:51;101704.19;;;19.98
79714;BMP280;69206;51.420;5.400;2023-06-22T03:11:16;101782.81;;;20.46
79714;BMP280;69206;51.420;5.400;2023-06-22T03:13:44;101773.53;;;20.42
79714;BMP280;69206;51.420;5.400;2023-06-22T03:16:11;101755.03;;;20.26
79714;BMP280;69206;51.420;5.400;2023-06-22T03:18:38;101685.91;;;20.10
79714;BMP280;69206;51.420;5.400;2023-06-22T03:21:04;101734.25;;;20.36
79714;BMP280;69206;51.420;5.400;2023-06-22T03:23:30;101725.44;;;20.21
79714;BMP280;69206;51.420;5.400;2023-06-22T03:25:56;101749.34;;;20.29
79714;BMP280;69206;51.420;5.400;2023-06-22T03:28:22;101736.22;;;20.13
79714;BMP280;69206;51.420;5.400;2023-06-22T03:30:47;101705.19;;;20.12
79714;BMP280;69206;51.420;5.400;2023-06-22T03:33:13;101730.50;;;20.16
79714;BMP280;69206;51.420;5.400;2023-06-22T03:35:38;101759.91;;;20.22
79714;BMP280;69206;51.420;5.400;2023-06-22T03:38:03;101749.44;;;20.35
79714;BMP280;69206;51.420;5.400;2023-06-22T03:40:29;101740.59;;;20.20
79714;BMP280;69206;51.420;5.400;2023-06-22T03:42:55;101683.78;;;19.76
79714;BMP280;69206;51.420;5.400;2023-06-22T03:45:20;101739.59;;;20.07
79714;BMP280;69206;51.420;5.400;2023-06-22T03:47:46;101757.13;;;20.01
79714;BMP280;69206;51.420;5.400;2023-06-22T03:50:14;101727.34;;;19.83
79714;BMP280;69206;51.420;5.400;2023-06-22T03:52:40;101717.66;;;19.82
79714;BMP280;69206;51.420;5.400;2023-06-22T03:55:06;101723.47;;;19.86
79714;BMP280;69206;51.420;5.400;2023-06-22T03:57:32;101746.94;;;20.05
79714;BMP280;69206;51.420;5.400;2023-06-22T03:59:58;101744.16;;;19.98
79714;BMP280;69206;51.420;5.400;2023-06-22T04:02:24;101764.25;;;20.09
79714;BMP280;69206;51.420;5.400;2023-06-22T04:04:50;101740.66;;;19.98
79714;BMP280;69206;51.420;5.400;2023-06-22T04:07:15;101706.03;;;19.83
79714;BMP280;69206;51.420;5.400;2023-06-22T04:09:41;101761.28;;;20.18
79714;BMP280;69206;51.420;5.400;2023-06-22T04:12:06;101726.41;;;19.91
79714;BMP280;69206;51.420;5.400;2023-06-22T04:14:32;101726.72;;;19.96
79714;BMP280;69206;51.420;5.400;2023-06-22T04:16:58;101741.97;;;20.31
79714;BMP280;69206;51.420;5.400;2023-06-22T04:19:23;101744.53;;;20.24
79714;BMP280;69206;51.420;5.400;2023-06-22T04:21:49;101697.94;;;19.91
79714;BMP280;69206;51.420;5.400;2023-06-22T04:24:15;101755.59;;;20.36
79714;BMP280;69206;51.420;5.400;2023-06-22T04:26:41;101752.75;;;20.37
79714;BMP280;69206;51.420;5.400;2023-06-22T04:29:10;101691.31;;;20.02
79714;BMP280;69206;51.420;5.400;2023-06-22T04:31:36;101726.72;;;20.39
79714;BMP280;69206;51.420;5.400;2023-06-22T04:34:03;101757.06;;;20.53
79714;BMP280;69206;51.420;5.400;2023-06-22T04:36:35;101754.31;;;20.46
79714;BMP280;69206;51.420;5.400;2023-06-22T04:39:05;101739.41;;;20.52
79714;BMP280;69206;51.420;5.400;2023-06-22T04:41:37;101742.50;;;20.70
79714;BMP280;69206;51.420;5.400;2023-06-22T04:44:10;101756.94;;;20.75
79714;BMP280;69206;51.420;5.400;2023-06-22T04:46:36;101761.47;;;20.75
79714;BMP280;69206;51.420;5.400;2023-06-22T04:49:07;101741.56;;;20.77
79714;BMP280;69206;51.420;5.400;2023-06-22T04:51:41;101755.63;;;20.86
79714;BMP280;69206;51.420;5.400;2023-06-22T04:54:09;101722.44;;;20.74
79714;BMP280;69206;51.420;5.400;2023-06-22T04:56:34;101752.97;;;20.86
79714;BMP280;69206;51.420;5.400;2023-06-22T04:59:01;101765.44;;;20.99
79714;BMP280;69206;51.420;5.400;2023-06-22T05:01:26;101719.13;;;20.72
79714;BMP280;69206;51.420;5.400;2023-06-22T05:03:52;101762.88;;;20.92
79714;BMP280;69206;51.420;5.400;2023-06-22T05:06:25;101662.88;;;20.52
79714;BMP280;69206;51.420;5.400;2023-06-22T05:08:56;101741.28;;;21.07
79714;BMP280;69206;51.420;5.400;2023-06-22T05:11:28;101747.50;;;21.35
79714;BMP280;69206;51.420;5.400;2023-06-22T05:13:54;101745.94;;;21.20
79714;BMP280;69206;51.420;5.400;2023-06-22T05:16:20;101743.59;;;21.10
79714;BMP280;69206;51.420;5.400;2023-06-22T05:18:52;101750.75;;;21.10
79714;BMP280;69206;51.420;5.400;2023-06-22T05:21:22;101714.47;;;20.95
79714;BMP280;69206;51.420;5.400;2023-06-22T05:23:48;101726.78;;;20.96
79714;BMP280;69206;51.420;5.400;2023-06-22T05:26:14;101747.38;;;21.01
79714;BMP280;69206;51.420;5.400;2023-06-22T05:28:40;101709.38;;;20.79
79714;BMP280;69206;51.420;5.400;2023-06-22T05:31:06;101759.97;;;21.07
79714;BMP280;69206;51.420;5.400;2023-06-22T05:33:31;101752.72;;;21.01
79714;BMP280;69206;51.420;5.400;2023-06-22T05:35:58;101669.38;;;20.64
79714;BMP280;69206;51.420;5.400;2023-06-22T05:38:24;101720.94;;;20.86
79714;BMP280;69206;51.420;5.400;2023-06-22T05:40:49;101747.88;;;21.11
79714;BMP280;69206;51.420;5.400;2023-06-22T05:43:15;101734.31;;;21.06
79714;BMP280;69206;51.420;5.400;2023-06-22T05:45:40;101740.28;;;21.29
79714;BMP280;69206;51.420;5.400;2023-06-22T05:48:06;101699.81;;;21.11
79714;BMP280;69206;51.420;5.400;2023-06-22T05:50:32;101749.19;;;21.57
79714;BMP280;69206;51.420;5.400;2023-06-22T05:52:57;101738.56;;;21.70
79714;BMP280;69206;51.420;5.400;2023-06-22T05:55:22;101703.47;;;21.73
79714;BMP280;69206;51.420;5.400;2023-06-22T05:57:48;101726.72;;;21.79
79714;BMP280;69206;51.420;5.400;2023-06-22T06:00:14;101749.69;;;22.01
79714;BMP280;69206;51.420;5.400;2023-06-22T06:02:40;101734.66;;;22.00
79714;BMP280;69206;51.420;5.400;2023-06-22T06:05:12;101740.06;;;22.07
79714;BMP280;69206;51.420;5.400;2023-06-22T06:07:43;101729.13;;;21.95
79714;BMP280;69206;51.420;5.400;2023-06-22T06:10:09;101734.66;;;22.00
79714;BMP280;69206;51.420;5.400;2023-06-22T06:12:34;101730.56;;;22.04
79714;BMP280;69206;51.420;5.400;2023-06-22T06:15:01;101714.34;;;22.06
79714;BMP280;69206;51.420;5.400;2023-06-22T06:17:26;101714.91;;;22.01
79714;BMP280;69206;51.420;5.400;2023-06-22T06:19:52;101737.94;;;22.30
79714;BMP280;69206;51.420;5.400;2023-06-22T06:22:17;101694.78;;;21.99
79714;BMP280;69206;51.420;5.400;2023-06-22T06:24:44;101744.91;;;22.24
79714;BMP280;69206;51.420;5.400;2023-06-22T06:27:10;101743.94;;;22.38
79714;BMP280;69206;51.420;5.400;2023-06-22T06:29:35;101706.78;;;22.16
79714;BMP280;69206;51.420;5.400;2023-06-22T06:32:01;101709.28;;;22.17
79714;BMP280;69206;51.420;5.400;2023-06-22T06:34:26;101731.06;;;22.14
79714;BMP280;69206;51.420;5.400;2023-06-22T06:36:52;101725.72;;;22.14
79714;BMP280;69206;51.420;5.400;2023-06-22T06:39:17;101720.75;;;22.11
79714;BMP280;69206;51.420;5.400;2023-06-22T06:41:42;101711.06;;;22.04
79714;BMP280;69206;51.420;5.400;2023-06-22T06:44:09;101726.34;;;22.16
79714;BMP280;69206;51.420;5.400;2023-06-22T06:46:34;101714.91;;;22.01
79714;BMP280;69206;51.420;5.400;2023-06-22T06:49:01;101743.41;;;22.15
79714;BMP280;69206;51.420;5.400;2023-06-22T06:51:27;101756.44;;;22.25
79714;BMP280;69206;51.420;5.400;2023-06-22T06:53:52;101743.78;;;22.12
79714;BMP280;69206;51.420;5.400;2023-06-22T06:56:17;101761.50;;;22.13
79714;BMP280;69206;51.420;5.400;2023-06-22T06:58:44;101759.75;;;22.27
79714;BMP280;69206;51.420;5.400;2023-06-22T07:01:11;101769.41;;;22.00
79714;BMP280;69206;51.420;5.400;2023-06-22T07:03:37;101721.94;;;21.68
79714;BMP280;69206;51.420;5.400;2023-06-22T07:06:02;101774.97;;;21.92
79714;BMP280;69206;51.420;5.400;2023-06-22T07:08:30;101770.56;;;21.85
79714;BMP280;69206;51.420;5.400;2023-06-22T07:10:55;101744.66;;;21.58
79714;BMP280;69206;51.420;5.400;2023-06-22T07:13:21;101766.97;;;21.71
79714;BMP280;69206;51.420;5.400;2023-06-22T07:15:46;101764.47;;;21.70
79714;BMP280;69206;51.420;5.400;2023-06-22T07:18:11;101742.34;;;21.55
79714;BMP280;69206;51.420;5.400;2023-06-22T07:20:37;101750.47;;;21.68
79714;BMP280;69206;51.420;5.400;2023-06-22T07:23:05;101742.78;;;21.86
79714;BMP280;69206;51.420;5.400;2023-06-22T07:25:31;101725.13;;;21.85
79714;BMP280;69206;51.420;5.400;2023-06-22T07:27:58;101731.22;;;21.79
79714;BMP280;69206;51.420;5.400;2023-06-22T07:30:30;101715.22;;;21.51
79714;BMP280;69206;51.420;5.400;2023-06-22T07:32:56;101678.47;;;21.32
79714;BMP280;69206;51.420;5.400;2023-06-22T07:35:22;101668.38;;;21.28
79714;BMP280;69206;51.420;5.400;2023-06-22T07:37:48;101678.72;;;21.37
79714;BMP280;69206;51.420;5.400;2023-06-22T07:40:16;101700.59;;;21.47
79714;BMP280;69206;51.420;5.400;2023-06-22T07:42:46;101682.13;;;21.52
79714;BMP280;69206;51.420;5.400;2023-06-22T07:45:14;101657.75;;;21.62
79714;BMP280;69206;51.420;5.400;2023-06-22T07:47:40;101642.47;;;21.90
79714;BMP280;69206;51.420;5.400;2023-06-22T07:50:06;101692.28;;;22.38
79714;BMP280;69206;51.420;5.400;2023-06-22T07:52:32;101647.75;;;22.17
79714;BMP280;69206;51.420;5.400;2023-06-22T07:54:58;101658.41;;;22.64
79714;BMP280;69206;51.420;5.400;2023-06-22T07:57:23;101616.41;;;22.58
79714;BMP280;69206;51.420;5.400;2023-06-22T08:00:00;101653.09;;;23.03
79714;BMP280;69206;51.420;5.400;2023-06-22T08:02:27;101580.78;;;22.64
79714;BMP280;69206;51.420;5.400;2023-06-22T08:04:52;101613.13;;;22.95
79714;BMP280;69206;51.420;5.400;2023-06-22T08:07:17;101550.72;;;22.62
79714;BMP280;69206;51.420;5.400;2023-06-22T08:09:47;101634.75;;;23.26
79714;BMP280;69206;51.420;5.400;2023-06-22T08:12:14;101584.28;;;22.97
79714;BMP280;69206;51.420;5.400;2023-06-22T08:14:42;101595.41;;;23.13
79714;BMP280;69206;51.420;5.400;2023-06-22T08:17:08;101604.44;;;23.38
79714;BMP280;69206;51.420;5.400;2023-06-22T08:19:33;101626.22;;;23.61
79714;BMP280;69206;51.420;5.400;2023-06-22T08:21:58;101615.13;;;23.58
79714;BMP280;69206;51.420;5.400;2023-06-22T08:24:24;101573.97;;;23.20
79714;BMP280;69206;51.420;5.400;2023-06-22T08:26:51;101628.75;;;23.43
79714;BMP280;69206;51.420;5.400;2023-06-22T08:29:18;101614.72;;;23.41
79714;BMP280;69206;51.420;5.400;2023-06-22T08:31:44;101584.28;;;23.29
79714;BMP280;69206;51.420;5.400;2023-06-22T08:34:14;101588.81;;;23.16
79714;BMP280;69206;51.420;5.400;2023-06-22T08:36:39;101591.50;;;23.03
79714;BMP280;69206;51.420;5.400;2023-06-22T08:39:11;101619.69;;;23.12
79714;BMP280;69206;51.420;5.400;2023-06-22T08:41:36;101632.09;;;23.13
79714;BMP280;69206;51.420;5.400;2023-06-22T08:44:03;101590.03;;;22.94
79714;BMP280;69206;51.420;5.400;2023-06-22T08:46:29;101570.69;;;22.72
79714;BMP280;69206;51.420;5.400;2023-06-22T08:48:59;101577.13;;;22.78
79714;BMP280;69206;51.420;5.400;2023-06-22T08:51:24;101617.63;;;23.20
79714;BMP280;69206;51.420;5.400;2023-06-22T08:53:52;101607.38;;;23.11
79714;BMP280;69206;51.420;5.400;2023-06-22T08:56:19;101592.94;;;22.92
79714;BMP280;69206;51.420;5.400;2023-06-22T08:58:47;101586.56;;;23.13
79714;BMP280;69206;51.420;5.400;2023-06-22T09:01:12;101588.13;;;23.33
79714;BMP280;69206;51.420;5.400;2023-06-22T09:03:39;101611.22;;;23.54
79714;BMP280;69206;51.420;5.400;2023-06-22T09:06:05;101600.91;;;23.51
79714;BMP280;69206;51.420;5.400;2023-06-22T09:08:30;101599.03;;;23.58
79714;BMP280;69206;51.420;5.400;2023-06-22T09:10:56;101584.75;;;23.64
79714;BMP280;69206;51.420;5.400;2023-06-22T09:13:21;101575.63;;;23.84
79714;BMP280;69206;51.420;5.400;2023-06-22T09:15:47;101577.38;;;23.96
79714;BMP280;69206;51.420;5.400;2023-06-22T09:18:13;101605.53;;;24.18
79714;BMP280;69206;51.420;5.400;2023-06-22T09:20:39;101573.47;;;24.36
79714;BMP280;69206;51.420;5.400;2023-06-22T09:23:04;101598.34;;;24.74
79714;BMP280;69206;51.420;5.400;2023-06-22T09:25:30;101538.13;;;24.08
79714;BMP280;69206;51.420;5.400;2023-06-22T09:27:55;101567.63;;;24.39
79714;BMP280;69206;51.420;5.400;2023-06-22T09:30:21;101567.75;;;24.26
79714;BMP280;69206;51.420;5.400;2023-06-22T09:32:47;101548.13;;;24.26
79714;BMP280;69206;51.420;5.400;2023-06-22T09:35:13;101548.97;;;24.51
79714;BMP280;69206;51.420;5.400;2023-06-22T09:37:42;101563.31;;;24.63
79714;BMP280;69206;51.420;5.400;2023-06-22T09:40:07;101553.06;;;24.53
79714;BMP280;69206;51.420;5.400;2023-06-22T09:42:35;101570.28;;;24.70
79714;BMP280;69206;51.420;5.400;2023-06-22T09:45:00;101549.44;;;24.41
79714;BMP280;69206;51.420;5.400;2023-06-22T09:47:28;101572.53;;;24.49
79714;BMP280;69206;51.420;5.400;2023-06-22T09:49:55;101550.31;;;24.35
79714;BMP280;69206;51.420;5.400;2023-06-22T09:52:21;101539.94;;;24.14
79714;BMP280;69206;51.420;5.400;2023-06-22T09:54:49;101588.91;;;24.41
79714;BMP280;69206;51.420;5.400;2023-06-22T09:57:15;101553.22;;;24.09
79714;BMP280;69206;51.420;5.400;2023-06-22T09:59:40;101591.78;;;24.08
79714;BMP280;69206;51.420;5.400;2023-06-22T10:02:06;101546.84;;;23.97
79714;BMP280;69206;51.420;5.400;2023-06-22T10:04:33;101580.81;;;24.16
79714;BMP280;69206;51.420;5.400;2023-06-22T10:07:08;101553.78;;;24.11
79714;BMP280;69206;51.420;5.400;2023-06-22T10:09:34;101538.25;;;23.89
79714;BMP280;69206;51.420;5.400;2023-06-22T10:12:00;101561.38;;;23.83
79714;BMP280;69206;51.420;5.400;2023-06-22T10:14:25;101590.97;;;24.01
79714;BMP280;69206;51.420;5.400;2023-06-22T10:16:52;101556.72;;;24.03
79714;BMP280;69206;51.420;5.400;2023-06-22T10:19:18;101530.88;;;23.78
79714;BMP280;69206;51.420;5.400;2023-06-22T10:21:43;101560.63;;;23.64
79714;BMP280;69206;51.420;5.400;2023-06-22T10:24:09;101595.78;;;23.93
79714;BMP280;69206;51.420;5.400;2023-06-22T10:26:35;101561.53;;;23.45
79714;BMP280;69206;51.420;5.400;2023-06-22T10:29:02;101610.16;;;23.61
79714;BMP280;69206;51.420;5.400;2023-06-22T10:31:28;101553.38;;;23.01
79714;BMP280;69206;51.420;5.400;2023-06-22T10:33:55;101617.22;;;23.30
79714;BMP280;69206;51.420;5.400;2023-06-22T10:36:23;101603.63;;;23.25
79714;BMP280;69206;51.420;5.400;2023-06-22T10:38:52;101602.84;;;22.92
79714;BMP280;69206;51.420;5.400;2023-06-22T10:41:20;101582.63;;;22.44
79714;BMP280;69206;51.420;5.400;2023-06-22T10:43:53;101640.66;;;22.50
79714;BMP280;69206;51.420;5.400;2023-06-22T10:46:26;101644.72;;;22.27
79714;BMP280;69206;51.420;5.400;2023-06-22T10:49:28;101632.13;;;22.08
79714;BMP280;69206;51.420;5.400;2023-06-22T10:52:00;101611.50;;;21.61
79714;BMP280;69206;51.420;5.400;2023-06-22T10:54:26;101610.16;;;21.44
79714;BMP280;69206;51.420;5.400;2023-06-22T10:56:51;101628.53;;;21.26
79714;BMP280;69206;51.420;5.400;2023-06-22T10:59:16;101639.25;;;21.33
79714;BMP280;69206;51.420;5.400;2023-06-22T11:01:43;101618.16;;;21.17
79714;BMP280;69206;51.420;5.400;2023-06-22T11:04:10;101611.84;;;20.97
79714;BMP280;69206;51.420;5.400;2023-06-22T11:06:35;101634.78;;;21.19
79714;BMP280;69206;51.420;5.400;2023-06-22T11:09:01;101636.59;;;21.12
79714;BMP280;69206;51.420;5.400;2023-06-22T11:11:26;101633.63;;;21.00
79714;BMP280;69206;51.420;5.400;2023-06-22T11:13:53;101658.66;;;20.99
79714;BMP280;69206;51.420;5.400;2023-06-22T11:16:19;101632.16;;;20.77
79714;BMP280;69206;51.420;5.400;2023-06-22T11:18:44;101650.78;;;20.92
79714;BMP280;69206;51.420;5.400;2023-06-22T11:21:09;101628.13;;;20.46
79714;BMP280;69206;51.420;5.400;2023-06-22T11:23:35;101624.84;;;20.65
79714;BMP280;69206;51.420;5.400;2023-06-22T11:26:00;101608.53;;;20.39
79714;BMP280;69206;51.420;5.400;2023-06-22T11:28:27;101643.63;;;20.57
79714;BMP280;69206;51.420;5.400;2023-06-22T11:30:52;101601.22;;;20.41
79714;BMP280;69206;51.420;5.400;2023-06-22T11:33:18;101637.34;;;20.64
79714;BMP280;69206;51.420;5.400;2023-06-22T11:35:43;101628.16;;;20.67
79714;BMP280;69206;51.420;5.400;2023-06-22T11:38:09;101609.38;;;20.54
79714;BMP280;69206;51.420;5.400;2023-06-22T11:40:34;101557.97;;;20.10
79714;BMP280;69206;51.420;5.400;2023-06-22T11:43:00;101582.38;;;20.28
79714;BMP280;69206;51.420;5.400;2023-06-22T11:45:25;101574.03;;;20.16
79714;BMP280;69206;51.420;5.400;2023-06-22T11:47:51;101544.88;;;20.15
79714;BMP280;69206;51.420;5.400;2023-06-22T11:50:17;101556.34;;;20.09
79714;BMP280;69206;51.420;5.400;2023-06-22T11:52:44;101583.94;;;20.37
79714;BMP280;69206;51.420;5.400;2023-06-22T11:55:09;101581.97;;;20.45
79714;BMP280;69206;51.420;5.400;2023-06-22T11:57:36;101584.91;;;20.36
79714;BMP280;69206;51.420;5.400;2023-06-22T12:00:05;101521.69;;;19.94
79714;BMP280;69206;51.420;5.400;2023-06-22T12:02:32;101548.94;;;20.11
79714;BMP280;69206;51.420;5.400;2023-06-22T12:04:58;101546.03;;;20.06
79714;BMP280;69206;51.420;5.400;2023-06-22T12:07:24;101570.59;;;20.37
79714;BMP280;69206;51.420;5.400;2023-06-22T12:09:49;101547.84;;;20.20
79714;BMP280;69206;51.420;5.400;2023-06-22T12:12:15;101565.13;;;20.45
79714;BMP280;69206;51.420;5.400;2023-06-22T12:14:40;101544.88;;;20.29
79714;BMP280;69206;51.420;5.400;2023-06-22T12:17:05;101523.94;;;20.12
79714;BMP280;69206;51.420;5.400;2023-06-22T12:19:30;101533.53;;;20.27
79714;BMP280;69206;51.420;5.400;2023-06-22T12:21:56;101520.19;;;20.42
79714;BMP280;69206;51.420;5.400;2023-06-22T12:24:21;101474.91;;;20.27
79714;BMP280;69206;51.420;5.400;2023-06-22T12:26:46;101528.94;;;20.57
79714;BMP280;69206;51.420;5.400;2023-06-22T12:29:12;101490.47;;;20.24
79714;BMP280;69206;51.420;5.400;2023-06-22T12:31:38;101508.59;;;20.35
79714;BMP280;69206;51.420;5.400;2023-06-22T12:34:04;101517.31;;;20.43
79714;BMP280;69206;51.420;5.400;2023-06-22T12:36:31;101520.81;;;20.44
79714;BMP280;69206;51.420;5.400;2023-06-22T12:38:56;101508.59;;;20.35
79714;BMP280;69206;51.420;5.400;2023-06-22T12:41:21;101537.06;;;20.49
79714;BMP280;69206;51.420;5.400;2023-06-22T12:43:47;101530.00;;;20.41
79714;BMP280;69206;51.420;5.400;2023-06-22T12:46:12;101533.81;;;20.47
79714;BMP280;69206;51.420;5.400;2023-06-22T12:48:38;101515.13;;;20.47
79714;BMP280;69206;51.420;5.400;2023-06-22T12:51:07;101476.97;;;20.11
79714;BMP280;69206;51.420;5.400;2023-06-22T12:53:35;101512.31;;;20.34
79714;BMP280;69206;51.420;5.400;2023-06-22T12:56:01;101508.84;;;20.19
79714;BMP280;69206;51.420;5.400;2023-06-22T12:58:26;101504.31;;;20.13
79714;BMP280;69206;51.420;5.400;2023-06-22T13:00:51;101527.25;;;20.14
79714;BMP280;69206;51.420;5.400;2023-06-22T13:03:18;101533.16;;;20.09
79714;BMP280;69206;51.420;5.400;2023-06-22T13:05:43;101521.03;;;20.07
79714;BMP280;69206;51.420;5.400;2023-06-22T13:08:09;101527.03;;;20.09
79714;BMP280;69206;51.420;5.400;2023-06-22T13:10:36;101524.06;;;20.04
79714;BMP280;69206;51.420;5.400;2023-06-22T13:13:02;101513.78;;;20.01
79714;BMP280;69206;51.420;5.400;2023-06-22T13:15:30;101498.28;;;19.90
79714;BMP280;69206;51.420;5.400;2023-06-22T13:17:56;101491.38;;;19.81
79714;BMP280;69206;51.420;5.400;2023-06-22T13:20:22;101482.41;;;19.82
79714;BMP280;69206;51.420;5.400;2023-06-22T13:22:48;101488.00;;;19.87
79714;BMP280;69206;51.420;5.400;2023-06-22T13:25:13;101475.59;;;19.79
79714;BMP280;69206;51.420;5.400;2023-06-22T13:27:41;101461.66;;;19.77
79714;BMP280;69206;51.420;5.400;2023-06-22T13:30:08;101451.97;;;19.91
79714;BMP280;69206;51.420;5.400;2023-06-22T13:32:33;101462.56;;;19.84
79714;BMP280;69206;51.420;5.400;2023-06-22T13:34:59;101443.34;;;19.89
79714;BMP280;69206;51.420;5.400;2023-06-22T13:37:26;101466.59;;;19.80
79714;BMP280;69206;51.420;5.400;2023-06-22T13:39:51;101466.03;;;19.85
79714;BMP280;69206;51.420;5.400;2023-06-22T13:42:17;101472.25;;;19.71
79714;BMP280;69206;51.420;5.400;2023-06-22T13:44:43;101467.34;;;19.60
79714;BMP280;69206;51.420;5.400;2023-06-22T13:47:09;101468.22;;;19.46
79714;BMP280;69206;51.420;5.400;2023-06-22T13:49:34;101474.63;;;19.51
79714;BMP280;69206;51.420;5.400;2023-06-22T13:52:00;101462.69;;;19.47
79714;BMP280;69206;51.420;5.400;2023-06-22T13:54:25;101457.47;;;19.39
79714;BMP280;69206;51.420;5.400;2023-06-22T13:56:51;101454.75;;;19.33
79714;BMP280;69206;51.420;5.400;2023-06-22T13:59:16;101449.84;;;19.22